Time;durP1;ratioP1;P1;durP2;ratioP2;P2;SDS_P1;SDS_P2;PMS_P1;PMS_P2;Temp;Humidity;BMP_temperature;BMP_pressure;BME280_temperature;BME280_humidity;BME280_pressure;Samples;Min_cycle;Max_cycle;Signal;HPM_P1;HPM_P2
2021/12/12 00:01:08;;;;;;;0.40;0.40;;;-0.50;99.90;;;;;;4994867;28;20759;-69
2021/12/12 00:04:09;;;;;;;2.20;2.10;;;-0.50;99.90;;;;;;4995550;28;20437;-69
2021/12/12 00:06:57;;;;;;;0.40;0.40;;;-0.50;99.90;;;;;;4995309;28;20434;-69
2021/12/12 00:09:49;;;;;;;0.40;0.40;;;-0.50;99.90;;;;;;4995012;28;20466;-69
2021/12/12 00:12:41;;;;;;;0.40;0.40;;;-0.60;99.90;;;;;;5006228;28;20457;-70
2021/12/12 00:15:28;;;;;;;0.40;0.40;;;-0.60;99.90;;;;;;5015169;28;20446;-69
2021/12/12 00:18:17;;;;;;;0.40;0.40;;;-0.60;99.90;;;;;;5015388;28;20430;-69
2021/12/12 00:21:06;;;;;;;0.40;0.40;;;-0.60;99.90;;;;;;5015073;28;20422;-69
2021/12/12 00:23:53;;;;;;;0.40;0.40;;;-0.60;99.90;;;;;;5014936;28;20474;-69
2021/12/12 00:26:41;;;;;;;0.40;0.40;;;-0.50;99.90;;;;;;5014921;28;20453;-69
2021/12/12 00:29:29;;;;;;;0.40;0.40;;;-0.50;99.90;;;;;;5014800;28;20469;-69
2021/12/12 00:32:18;;;;;;;0.40;0.40;;;-0.40;99.90;;;;;;5015248;28;20434;-69
2021/12/12 00:35:10;;;;;;;0.40;0.40;;;-0.40;99.90;;;;;;5014197;28;20451;-69
2021/12/12 00:38:00;;;;;;;0.40;0.40;;;-0.20;99.90;;;;;;5016104;28;20469;-69
2021/12/12 00:40:51;;;;;;;0.40;0.40;;;0.00;99.90;;;;;;5014163;28;20591;-69
2021/12/12 00:43:43;;;;;;;0.40;0.40;;;0.00;99.90;;;;;;5015082;28;21032;-69
2021/12/12 00:46:30;;;;;;;0.40;0.40;;;0.10;99.90;;;;;;5015109;28;20493;-69
2021/12/12 00:49:18;;;;;;;0.40;0.40;;;0.20;99.90;;;;;;5014633;28;20485;-69
2021/12/12 00:52:09;;;;;;;0.40;0.40;;;0.30;99.90;;;;;;5014867;28;20441;-69
2021/12/12 00:54:56;;;;;;;0.40;0.40;;;0.30;99.90;;;;;;5014476;28;20970;-69
2021/12/12 00:57:44;;;;;;;0.40;0.40;;;0.20;99.90;;;;;;5014704;28;20946;-69
2021/12/12 01:00:36;;;;;;;0.40;0.40;;;0.20;99.90;;;;;;5014798;28;20434;-69
2021/12/12 01:03:27;;;;;;;0.40;0.40;;;0.30;99.90;;;;;;5015022;28;20513;-69
2021/12/12 01:06:16;;;;;;;0.40;0.40;;;0.40;99.90;;;;;;5014392;28;20438;-69
2021/12/12 01:09:08;;;;;;;0.40;0.40;;;0.40;99.90;;;;;;5014161;28;20488;-69
2021/12/12 01:11:58;;;;;;;0.40;0.40;;;0.50;99.90;;;;;;5008409;28;20427;-69
2021/12/12 01:14:48;;;;;;;0.40;0.40;;;0.50;99.90;;;;;;4994065;28;20435;-68
2021/12/12 01:17:40;;;;;;;0.40;0.40;;;0.70;99.90;;;;;;4993904;28;20422;-71
2021/12/12 01:20:32;;;;;;;2.20;1.90;;;0.70;99.90;;;;;;4994182;28;20423;-68
2021/12/12 01:23:28;;;;;;;0.40;0.40;;;0.80;99.90;;;;;;4994444;28;20450;-69
2021/12/12 01:26:17;;;;;;;3.30;2.40;;;0.80;99.90;;;;;;4993425;28;20451;-68
2021/12/12 01:29:06;;;;;;;0.40;0.40;;;0.70;99.90;;;;;;4994065;28;20415;-68
2021/12/12 01:31:54;;;;;;;0.40;0.40;;;0.90;99.90;;;;;;4994255;28;20431;-68
2021/12/12 01:34:42;;;;;;;0.40;0.40;;;0.80;99.90;;;;;;4993251;28;20423;-68
2021/12/12 01:37:39;;;;;;;0.40;0.40;;;0.80;99.90;;;;;;4994140;28;20427;-68
2021/12/12 01:40:26;;;;;;;0.40;0.40;;;0.80;99.90;;;;;;4993122;28;20427;-68
2021/12/12 01:43:21;;;;;;;0.40;0.40;;;0.90;99.90;;;;;;4993632;28;20922;-68
2021/12/12 01:46:15;;;;;;;0.40;0.40;;;1.00;99.90;;;;;;4992655;28;20438;-69
2021/12/12 01:49:06;;;;;;;0.40;0.40;;;0.90;99.90;;;;;;4993400;28;20479;-68
2021/12/12 01:51:56;;;;;;;0.40;0.40;;;0.90;99.90;;;;;;4994421;28;20427;-68
2021/12/12 01:54:47;;;;;;;0.40;0.40;;;0.90;99.90;;;;;;4993402;28;20424;-68
2021/12/12 01:57:37;;;;;;;0.40;0.40;;;0.90;99.90;;;;;;4993428;28;20423;-69
2021/12/12 02:00:28;;;;;;;0.40;0.40;;;0.90;99.90;;;;;;4993220;28;20442;-69
2021/12/12 02:03:19;;;;;;;1.53;1.53;;;0.90;99.90;;;;;;4993021;28;20427;-68
2021/12/12 02:06:10;;;;;;;0.40;0.40;;;0.90;99.90;;;;;;4993386;28;20506;-68
2021/12/12 02:08:59;;;;;;;0.40;0.40;;;0.90;99.90;;;;;;4993224;28;20439;-68
2021/12/12 02:11:48;;;;;;;0.40;0.40;;;0.80;99.90;;;;;;4997993;28;20984;-69
2021/12/12 02:14:38;;;;;;;0.40;0.40;;;0.70;99.90;;;;;;5013293;28;20966;-69
2021/12/12 02:17:34;;;;;;;0.40;0.40;;;0.60;99.90;;;;;;5013333;28;20930;-68
2021/12/12 02:20:32;;;;;;;0.40;0.40;;;0.40;99.90;;;;;;5012878;28;20415;-69
2021/12/12 02:23:30;;;;;;;0.40;0.40;;;0.30;99.90;;;;;;4977679;28;20420;-68
2021/12/12 02:35:49;;;;;;;0.40;0.40;;;-0.10;99.90;;;;;;4992067;28;20446;-69
2021/12/12 02:38:38;;;;;;;0.40;0.40;;;-0.30;99.90;;;;;;4992385;28;20968;-72
2021/12/12 02:41:27;;;;;;;0.40;0.40;;;-0.30;99.90;;;;;;4992375;28;20416;-71
2021/12/12 02:44:15;;;;;;;0.40;0.40;;;-0.40;99.90;;;;;;4992287;28;20468;-69
2021/12/12 02:47:09;;;;;;;0.40;0.40;;;-0.20;99.90;;;;;;4992479;28;20423;-70
2021/12/12 02:50:08;;;;;;;0.40;0.40;;;-0.40;99.90;;;;;;4992340;28;20931;-69
2021/12/12 02:52:59;;;;;;;0.40;0.40;;;-0.40;99.90;;;;;;4992404;28;20441;-69
2021/12/12 02:55:50;;;;;;;0.40;0.40;;;-0.50;99.90;;;;;;4992154;28;20552;-69
2021/12/12 02:58:37;;;;;;;0.40;0.40;;;-0.60;99.90;;;;;;4991518;28;20478;-70
2021/12/12 03:01:33;;;;;;;0.40;0.40;;;-0.60;99.90;;;;;;4992121;28;20890;-71
2021/12/12 03:04:20;;;;;;;0.40;0.40;;;0.40;99.90;;;;;;4992252;28;20709;-69
2021/12/12 03:07:09;;;;;;;0.40;0.40;;;-0.50;99.90;;;;;;4992194;28;20509;-69
2021/12/12 03:09:59;;;;;;;1.73;1.37;;;-0.40;99.90;;;;;;4991700;28;20424;-70
2021/12/12 03:12:47;;;;;;;0.40;0.40;;;-0.30;99.90;;;;;;4992156;28;20970;-69
2021/12/12 03:15:38;;;;;;;0.40;0.40;;;-0.30;99.90;;;;;;4992103;28;20498;-69
2021/12/12 03:18:29;;;;;;;0.40;0.40;;;-0.10;99.90;;;;;;4991952;28;20518;-71
2021/12/12 03:21:20;;;;;;;0.40;0.40;;;-0.10;99.90;;;;;;4991990;28;20932;-69
2021/12/12 03:24:10;;;;;;;0.40;0.40;;;0.00;99.90;;;;;;4991929;28;20426;-70
2021/12/12 03:27:01;;;;;;;3.93;3.70;;;0.10;99.90;;;;;;4991992;28;20435;-69
2021/12/12 03:29:51;;;;;;;0.40;0.40;;;0.10;99.90;;;;;;4991609;28;20456;-69
2021/12/12 03:32:38;;;;;;;0.87;0.87;;;0.20;99.90;;;;;;4992157;28;20423;-68
2021/12/12 03:35:25;;;;;;;0.40;0.40;;;0.30;99.90;;;;;;4992264;28;20513;-68
2021/12/12 03:38:12;;;;;;;0.50;0.50;;;0.30;99.90;;;;;;4991890;28;20459;-68
2021/12/12 03:41:03;;;;;;;0.40;0.40;;;0.30;99.90;;;;;;4992143;28;20452;-69
2021/12/12 03:43:51;;;;;;;0.70;0.70;;;0.20;99.90;;;;;;4992220;28;20455;-69
2021/12/12 03:46:41;;;;;;;0.40;0.40;;;0.30;99.90;;;;;;4992150;28;20489;-68
2021/12/12 03:49:28;;;;;;;0.80;0.80;;;0.20;99.90;;;;;;4991881;28;20478;-68
2021/12/12 03:52:17;;;;;;;0.40;0.40;;;0.40;99.90;;;;;;4991917;28;20466;-68
2021/12/12 03:55:07;;;;;;;0.50;0.50;;;0.30;99.90;;;;;;4992133;28;20513;-68
2021/12/12 03:57:55;;;;;;;0.60;0.60;;;0.30;99.90;;;;;;4991333;28;20426;-70
2021/12/12 04:00:47;;;;;;;0.40;0.40;;;0.20;99.90;;;;;;4991550;28;20513;-68
2021/12/12 04:03:35;;;;;;;0.73;0.67;;;0.20;99.90;;;;;;4991788;28;20435;-69
2021/12/12 04:06:29;;;;;;;0.87;0.87;;;0.20;99.90;;;;;;4991623;28;20447;-69
2021/12/12 04:09:17;;;;;;;2.50;2.40;;;0.20;99.90;;;;;;4991182;28;21006;-70
2021/12/12 04:12:07;;;;;;;0.80;0.80;;;0.30;99.90;;;;;;5002270;28;20465;-70
2021/12/12 04:14:56;;;;;;;0.70;0.70;;;0.20;99.90;;;;;;5015303;28;20459;-69
2021/12/12 04:17:44;;;;;;;0.60;0.60;;;0.10;99.90;;;;;;5015198;28;20422;-68
2021/12/12 04:20:35;;;;;;;0.90;0.90;;;0.20;99.90;;;;;;5014970;28;20523;-69
2021/12/12 04:23:27;;;;;;;0.70;0.70;;;0.10;99.90;;;;;;5015387;28;20467;-69
2021/12/12 04:26:16;;;;;;;0.43;0.43;;;0.10;99.90;;;;;;5014993;28;20457;-68
2021/12/12 04:29:08;;;;;;;1.00;1.00;;;0.10;99.90;;;;;;5015226;28;20423;-69
2021/12/12 04:31:58;;;;;;;0.40;0.40;;;0.10;99.90;;;;;;5020641;28;20458;-70
2021/12/12 04:34:48;;;;;;;0.40;0.40;;;0.20;99.90;;;;;;5022516;28;20894;-67
2021/12/12 04:37:37;;;;;;;0.70;0.70;;;0.30;99.90;;;;;;5014565;28;20816;-69
2021/12/12 04:40:28;;;;;;;0.40;0.40;;;0.50;99.90;;;;;;5014119;28;20508;-69
2021/12/12 04:43:15;;;;;;;0.40;0.40;;;0.70;99.90;;;;;;5014950;28;20910;-68
2021/12/12 04:46:09;;;;;;;0.40;0.40;;;0.60;99.90;;;;;;4999933;28;20451;-70
2021/12/12 04:52:08;;;;;;;2.20;2.00;;;0.60;99.90;;;;;;4994569;28;20507;-69
2021/12/12 04:55:02;;;;;;;1.17;1.17;;;0.60;99.90;;;;;;4994330;28;20522;-69
2021/12/12 04:57:54;;;;;;;0.40;0.40;;;0.60;99.90;;;;;;4993997;28;20849;-69
2021/12/12 05:00:47;;;;;;;0.40;0.40;;;0.80;99.90;;;;;;4993706;28;20435;-68
2021/12/12 05:03:42;;;;;;;0.40;0.40;;;0.60;99.90;;;;;;4994407;28;21041;-68
2021/12/12 05:06:34;;;;;;;0.60;0.60;;;0.70;99.90;;;;;;4994251;28;20446;-68
2021/12/12 05:09:29;;;;;;;0.40;0.40;;;0.70;99.90;;;;;;4993947;28;20431;-68
2021/12/12 05:12:22;;;;;;;0.40;0.40;;;0.80;99.90;;;;;;5003144;28;20475;-68
2021/12/12 05:15:14;;;;;;;0.40;0.40;;;0.90;99.90;;;;;;5014788;28;20495;-68
2021/12/12 05:18:04;;;;;;;0.40;0.40;;;0.90;99.90;;;;;;5014376;28;20427;-68
2021/12/12 05:20:56;;;;;;;0.40;0.40;;;0.90;99.90;;;;;;5014186;28;20437;-68
2021/12/12 05:23:46;;;;;;;0.50;0.50;;;0.90;99.90;;;;;;5014773;28;20473;-67
2021/12/12 05:26:37;;;;;;;0.93;0.93;;;0.90;99.90;;;;;;5013951;28;20457;-68
2021/12/12 05:29:30;;;;;;;1.27;0.97;;;0.90;99.90;;;;;;5013902;28;20426;-69
2021/12/12 05:32:18;;;;;;;0.40;0.40;;;0.80;99.90;;;;;;5013976;28;20466;-68
2021/12/12 05:35:08;;;;;;;0.40;0.40;;;0.70;99.90;;;;;;5014152;28;20445;-69
2021/12/12 05:37:57;;;;;;;0.40;0.40;;;0.70;99.90;;;;;;5014190;28;20957;-68
2021/12/12 05:40:46;;;;;;;0.40;0.40;;;0.60;99.90;;;;;;5014060;28;20942;-68
2021/12/12 05:43:38;;;;;;;0.40;0.40;;;0.50;99.90;;;;;;5014303;28;20426;-67
2021/12/12 05:46:26;;;;;;;0.40;0.40;;;0.50;99.90;;;;;;5014087;28;20450;-68
2021/12/12 05:49:14;;;;;;;0.40;0.40;;;0.40;99.90;;;;;;5013801;28;20422;-68
2021/12/12 05:52:01;;;;;;;0.40;0.40;;;0.40;99.90;;;;;;5013862;28;20466;-69
2021/12/12 05:54:50;;;;;;;0.40;0.40;;;0.30;99.90;;;;;;5013374;28;20506;-68
2021/12/12 05:57:38;;;;;;;0.40;0.40;;;0.40;99.90;;;;;;5013703;28;20427;-68
2021/12/12 06:00:28;;;;;;;0.40;0.40;;;0.30;99.90;;;;;;5013485;28;20437;-68
2021/12/12 06:03:19;;;;;;;0.40;0.40;;;0.20;99.90;;;;;;5013817;28;20423;-68
2021/12/12 06:06:09;;;;;;;0.40;0.40;;;0.30;99.90;;;;;;5013399;28;20931;-69
2021/12/12 06:08:58;;;;;;;0.50;0.50;;;0.20;99.90;;;;;;5013280;28;20914;-67
2021/12/12 06:11:48;;;;;;;0.40;0.40;;;0.30;99.90;;;;;;5009063;28;20873;-65
2021/12/12 06:14:35;;;;;;;0.40;0.40;;;0.30;99.90;;;;;;4992728;28;20506;-67
2021/12/12 06:17:23;;;;;;;0.40;0.40;;;0.50;99.90;;;;;;4993535;28;20436;-65
2021/12/12 06:20:12;;;;;;;0.40;0.40;;;0.30;99.90;;;;;;4992977;28;20431;-69
2021/12/12 06:22:59;;;;;;;0.50;0.50;;;0.40;99.90;;;;;;4993607;28;20464;-67
2021/12/12 06:25:48;;;;;;;0.40;0.40;;;0.40;99.90;;;;;;4998232;28;20443;-68
2021/12/12 06:28:39;;;;;;;0.40;0.40;;;0.40;99.90;;;;;;5002939;28;20574;-65
2021/12/12 06:31:26;;;;;;;0.40;0.40;;;0.50;99.90;;;;;;4999922;28;20470;-69
2021/12/12 06:34:15;;;;;;;0.70;0.70;;;0.50;99.90;;;;;;4995789;28;20843;-68
2021/12/12 06:37:05;;;;;;;0.40;0.40;;;0.50;99.90;;;;;;4996855;28;20451;-68
2021/12/12 06:39:53;;;;;;;0.40;0.40;;;0.50;99.90;;;;;;4997484;28;20427;-68
2021/12/12 06:42:40;;;;;;;0.40;0.40;;;0.50;99.90;;;;;;4997108;28;20419;-69
2021/12/12 06:45:28;;;;;;;0.40;0.40;;;0.70;99.90;;;;;;4996151;28;20451;-68
2021/12/12 06:48:17;;;;;;;0.40;0.40;;;0.60;99.90;;;;;;4996767;28;20423;-68
2021/12/12 06:51:04;;;;;;;0.40;0.40;;;0.80;99.90;;;;;;4996526;28;20938;-68
2021/12/12 06:53:53;;;;;;;0.40;0.40;;;0.80;99.90;;;;;;4996805;28;20489;-69
2021/12/12 06:56:40;;;;;;;0.40;0.40;;;0.80;99.90;;;;;;4997230;28;20517;-69
2021/12/12 06:59:29;;;;;;;0.40;0.40;;;0.80;99.90;;;;;;4997075;28;20449;-68
2021/12/12 07:02:17;;;;;;;0.40;0.40;;;0.70;99.90;;;;;;4996205;28;20513;-68
2021/12/12 07:05:06;;;;;;;0.40;0.40;;;0.90;99.90;;;;;;4997408;28;20442;-68
2021/12/12 07:07:54;;;;;;;0.40;0.40;;;0.90;99.90;;;;;;4996961;28;20423;-68
2021/12/12 07:10:44;;;;;;;0.40;0.40;;;0.90;99.90;;;;;;4996051;28;20490;-68
2021/12/12 07:13:32;;;;;;;0.40;0.40;;;0.90;99.90;;;;;;5014628;28;20860;-68
2021/12/12 07:16:20;;;;;;;0.40;0.40;;;0.80;99.90;;;;;;5017146;28;20462;-68
2021/12/12 07:19:07;;;;;;;0.40;0.40;;;1.00;99.90;;;;;;5014683;28;20513;-69
2021/12/12 07:21:54;;;;;;;0.40;0.40;;;0.90;99.90;;;;;;5028081;28;20871;-69
2021/12/12 07:24:43;;;;;;;0.40;0.40;;;1.00;99.90;;;;;;5032821;28;20426;-68
2021/12/12 07:27:32;;;;;;;0.40;0.40;;;1.00;99.90;;;;;;5032388;28;20429;-68
2021/12/12 07:30:20;;;;;;;0.47;0.47;;;1.00;99.90;;;;;;5032258;28;20430;-68
2021/12/12 07:33:08;;;;;;;0.40;0.40;;;1.10;99.90;;;;;;5033351;28;20473;-68
2021/12/12 07:35:59;;;;;;;0.40;0.40;;;1.10;99.90;;;;;;5032772;28;20838;-68
2021/12/12 07:38:48;;;;;;;0.40;0.40;;;1.30;99.90;;;;;;5032788;28;20438;-68
2021/12/12 07:41:37;;;;;;;0.40;0.40;;;1.20;99.90;;;;;;5032980;28;20462;-68
2021/12/12 07:44:28;;;;;;;0.40;0.40;;;1.20;99.90;;;;;;5033140;28;20418;-68
2021/12/12 07:47:17;;;;;;;2.00;1.90;;;1.30;99.90;;;;;;5036468;28;20422;-68
2021/12/12 07:50:07;;;;;;;0.40;0.40;;;1.30;99.90;;;;;;5016251;28;20934;-68
2021/12/12 07:52:55;;;;;;;0.40;0.40;;;1.30;99.90;;;;;;5015135;28;20528;-68
2021/12/12 07:55:42;;;;;;;0.40;0.40;;;1.30;99.90;;;;;;5015899;28;20552;-68
2021/12/12 07:58:29;;;;;;;0.40;0.40;;;1.30;99.90;;;;;;5015356;28;20454;-68
2021/12/12 08:01:18;;;;;;;0.40;0.40;;;1.30;99.90;;;;;;5016283;28;20422;-68
2021/12/12 08:04:06;;;;;;;0.40;0.40;;;1.40;99.90;;;;;;5015682;28;20948;-68
2021/12/12 08:06:53;;;;;;;0.40;0.40;;;1.50;99.90;;;;;;5015731;28;20422;-68
2021/12/12 08:09:42;;;;;;;0.40;0.40;;;1.50;99.90;;;;;;5015506;28;20489;-68
2021/12/12 08:12:30;;;;;;;0.43;0.43;;;1.50;99.90;;;;;;5005268;28;21110;-68
2021/12/12 08:15:18;;;;;;;0.40;0.40;;;1.60;99.90;;;;;;4996609;28;20865;-68
2021/12/12 08:18:08;;;;;;;0.40;0.40;;;1.70;99.90;;;;;;4996123;28;20427;-68
2021/12/12 08:20:56;;;;;;;0.40;0.40;;;1.80;99.90;;;;;;4996018;28;20433;-68
2021/12/12 08:23:44;;;;;;;0.40;0.40;;;2.00;99.90;;;;;;4994537;28;20810;-67
2021/12/12 08:26:32;;;;;;;0.40;0.40;;;2.00;99.90;;;;;;4995286;28;20446;-68
2021/12/12 08:29:20;;;;;;;0.40;0.40;;;2.10;99.90;;;;;;4994997;28;20570;-68
2021/12/12 08:32:10;;;;;;;0.40;0.40;;;2.20;99.90;;;;;;4994551;28;20470;-68
2021/12/12 08:34:58;;;;;;;0.40;0.40;;;2.30;99.90;;;;;;4995245;28;20456;-68
2021/12/12 08:37:47;;;;;;;0.40;0.40;;;2.40;99.90;;;;;;4995046;28;20446;-68
2021/12/12 08:40:39;;;;;;;0.40;0.40;;;2.60;99.90;;;;;;4995334;28;20428;-68
2021/12/12 08:43:28;;;;;;;0.40;0.40;;;2.50;99.90;;;;;;4995328;28;20489;-65
2021/12/12 08:46:17;;;;;;;0.40;0.40;;;2.70;99.90;;;;;;5007208;28;20454;-67
2021/12/12 08:49:04;;;;;;;0.40;0.40;;;2.80;99.90;;;;;;4996230;28;20423;-68
2021/12/12 08:51:57;;;;;;;0.40;0.40;;;3.00;99.90;;;;;;4995479;28;20553;-68
2021/12/12 08:54:46;;;;;;;0.40;0.40;;;3.10;99.90;;;;;;4996859;28;20427;-68
2021/12/12 08:57:39;;;;;;;0.40;0.40;;;3.20;99.90;;;;;;4997363;28;20430;-68
2021/12/12 09:00:29;;;;;;;0.40;0.40;;;3.10;99.90;;;;;;4994581;28;20550;-68
2021/12/12 09:03:20;;;;;;;0.40;0.40;;;3.00;99.90;;;;;;4994291;28;20513;-68
2021/12/12 09:06:11;;;;;;;0.40;0.40;;;2.90;99.90;;;;;;4994520;28;20518;-68
2021/12/12 09:09:04;;;;;;;0.40;0.40;;;3.00;99.90;;;;;;4994657;28;20419;-66
2021/12/12 09:11:56;;;;;;;0.40;0.40;;;3.00;99.90;;;;;;5000098;28;20937;-68
2021/12/12 09:14:47;;;;;;;0.40;0.40;;;3.10;99.90;;;;;;5014767;28;20479;-68
2021/12/12 09:17:38;;;;;;;0.40;0.40;;;3.10;99.90;;;;;;5014779;28;20516;-67
2021/12/12 09:20:33;;;;;;;0.40;0.40;;;3.20;99.90;;;;;;5015545;28;20429;-66
2021/12/12 09:23:26;;;;;;;0.40;0.40;;;3.20;99.90;;;;;;5014911;28;20433;-66
2021/12/12 09:26:21;;;;;;;0.40;0.40;;;3.30;99.90;;;;;;5015006;28;20457;-67
2021/12/12 09:29:18;;;;;;;0.40;0.40;;;3.30;99.90;;;;;;5019354;28;20802;-66
2021/12/12 09:32:10;;;;;;;0.40;0.40;;;3.40;99.90;;;;;;5023165;28;20457;-66
2021/12/12 09:35:01;;;;;;;0.40;0.40;;;3.40;99.90;;;;;;5021235;28;21009;-67
2021/12/12 09:37:55;;;;;;;0.40;0.40;;;3.40;99.90;;;;;;5021775;28;20446;-66
2021/12/12 09:41:03;;;;;;;1.17;1.07;;;3.40;99.90;;;;;;5020587;28;20433;-67
2021/12/12 09:44:03;;;;;;;0.40;0.40;;;3.50;99.90;;;;;;5019914;28;20418;-67
2021/12/12 09:47:13;;;;;;;0.40;0.40;;;3.60;99.90;;;;;;5018746;28;20462;-66
2021/12/12 09:53:42;;;;;;;0.40;0.40;;;3.60;99.90;;;;;;5019473;28;20477;-66
2021/12/12 09:56:37;;;;;;;0.40;0.40;;;3.80;99.90;;;;;;5021122;28;20454;-67
2021/12/12 09:59:44;;;;;;;0.50;0.50;;;3.80;99.90;;;;;;5016162;28;20422;-66
2021/12/12 10:02:44;;;;;;;0.40;0.40;;;3.80;99.90;;;;;;5015159;28;20425;-66
2021/12/12 10:05:42;;;;;;;0.40;0.40;;;3.80;99.90;;;;;;5014034;28;20454;-67
2021/12/12 10:08:42;;;;;;;0.40;0.40;;;3.80;99.90;;;;;;5012902;28;20457;-66
2021/12/12 10:11:37;;;;;;;0.40;0.40;;;3.70;99.90;;;;;;5012526;28;20422;-67
2021/12/12 10:14:30;;;;;;;0.50;0.50;;;3.90;99.90;;;;;;4993589;28;20776;-67
2021/12/12 10:17:27;;;;;;;0.40;0.40;;;3.70;99.90;;;;;;4994118;28;20471;-66
2021/12/12 10:20:19;;;;;;;0.40;0.40;;;3.80;99.90;;;;;;4994953;28;20513;-66
2021/12/12 10:23:13;;;;;;;0.40;0.40;;;3.80;99.90;;;;;;4993100;28;20505;-66
2021/12/12 10:26:05;;;;;;;0.40;0.40;;;3.90;99.90;;;;;;4993519;28;20446;-67
2021/12/12 10:28:57;;;;;;;0.40;0.40;;;4.10;99.90;;;;;;5009009;28;20478;-67
2021/12/12 10:31:49;;;;;;;0.40;0.40;;;4.10;99.90;;;;;;5009868;28;20431;-67
2021/12/12 10:34:41;;;;;;;0.40;0.40;;;4.00;99.90;;;;;;5011002;28;20454;-68
2021/12/12 10:37:32;;;;;;;0.40;0.40;;;4.00;99.90;;;;;;5011532;28;20448;-67
2021/12/12 10:40:23;;;;;;;0.43;0.43;;;4.00;99.90;;;;;;4994606;28;20468;-67
2021/12/12 10:43:14;;;;;;;0.40;0.40;;;4.10;99.90;;;;;;4993435;28;20415;-67
2021/12/12 10:46:08;;;;;;;0.77;0.77;;;4.20;99.90;;;;;;4992698;28;20449;-67
2021/12/12 10:49:03;;;;;;;0.40;0.40;;;4.40;99.90;;;;;;4993062;28;20431;-67
2021/12/12 10:51:56;;;;;;;0.50;0.50;;;4.50;99.90;;;;;;4992898;28;20426;-67
2021/12/12 10:54:52;;;;;;;0.40;0.40;;;4.60;99.90;;;;;;4992320;28;20423;-67
2021/12/12 10:57:40;;;;;;;0.80;0.80;;;4.60;99.90;;;;;;4993460;28;20901;-67
2021/12/12 11:00:31;;;;;;;0.40;0.40;;;4.50;99.90;;;;;;4993302;28;20430;-67
2021/12/12 11:03:21;;;;;;;0.40;0.40;;;4.80;99.90;;;;;;4993045;28;20951;-67
2021/12/12 11:06:16;;;;;;;0.40;0.40;;;4.90;99.90;;;;;;4992815;28;20443;-67
2021/12/12 11:09:07;;;;;;;0.40;0.40;;;5.00;99.90;;;;;;4993001;28;20453;-67
2021/12/12 11:12:02;;;;;;;0.40;0.40;;;5.30;99.90;;;;;;4998654;28;20521;-67
2021/12/12 11:14:57;;;;;;;0.40;0.40;;;5.20;99.90;;;;;;5013072;28;20437;-67
2021/12/12 11:17:49;;;;;;;0.40;0.40;;;5.20;99.90;;;;;;5013060;28;20970;-67
2021/12/12 11:20:39;;;;;;;1.37;1.27;;;5.20;99.90;;;;;;5015992;28;20966;-67
2021/12/12 11:23:31;;;;;;;0.40;0.40;;;5.10;99.90;;;;;;5017319;28;20418;-67
2021/12/12 11:26:21;;;;;;;0.40;0.40;;;5.10;99.90;;;;;;5017180;28;20477;-67
2021/12/12 11:29:13;;;;;;;0.40;0.40;;;4.90;99.90;;;;;;5016202;28;20429;-67
2021/12/12 11:32:04;;;;;;;0.40;0.40;;;4.80;99.90;;;;;;5017801;28;20426;-67
2021/12/12 11:34:53;;;;;;;0.40;0.40;;;5.00;99.90;;;;;;5017790;28;20859;-67
2021/12/12 11:37:49;;;;;;;0.40;0.40;;;5.00;99.90;;;;;;5018058;28;20417;-67
2021/12/12 11:40:42;;;;;;;0.40;0.40;;;4.90;99.90;;;;;;5017281;28;20422;-67
2021/12/12 11:43:37;;;;;;;0.40;0.40;;;4.90;99.90;;;;;;5015983;28;20465;-67
2021/12/12 11:46:31;;;;;;;0.50;0.50;;;5.10;99.90;;;;;;5016761;28;20503;-68
2021/12/12 11:49:24;;;;;;;0.40;0.40;;;5.00;99.90;;;;;;5014788;28;20418;-67
2021/12/12 11:52:20;;;;;;;0.77;0.77;;;5.10;99.90;;;;;;5016255;28;20460;-68
2021/12/12 11:55:13;;;;;;;1.40;1.40;;;5.10;99.90;;;;;;5017134;28;20481;-68
2021/12/12 11:58:07;;;;;;;0.40;0.40;;;5.20;99.90;;;;;;5017996;28;20516;-67
2021/12/12 12:01:02;;;;;;;0.40;0.40;;;5.40;99.90;;;;;;5016469;28;20645;-67
2021/12/12 12:04:06;;;;;;;0.40;0.40;;;5.30;99.90;;;;;;5016468;28;20429;-67
2021/12/12 12:07:05;;;;;;;0.40;0.40;;;5.20;99.90;;;;;;5016512;28;20475;-67
2021/12/12 12:10:08;;;;;;;0.40;0.40;;;5.20;99.90;;;;;;5016482;28;20923;-68
2021/12/12 12:13:08;;;;;;;0.40;0.40;;;5.20;99.90;;;;;;5001981;28;20474;-68
2021/12/12 12:16:00;;;;;;;0.70;0.70;;;5.20;99.90;;;;;;4996058;28;20454;-67
2021/12/12 12:18:55;;;;;;;0.40;0.40;;;5.10;99.90;;;;;;4995992;28;20458;-67
2021/12/12 12:22:01;;;;;;;0.40;0.40;;;4.90;99.90;;;;;;4995955;28;20430;-67
2021/12/12 12:25:02;;;;;;;0.40;0.40;;;4.70;99.90;;;;;;4996952;28;20442;-68
2021/12/12 12:27:55;;;;;;;0.40;0.40;;;4.70;99.90;;;;;;4996364;28;20423;-67
2021/12/12 12:31:33;;;;;;;0.83;0.83;;;4.70;99.90;;;;;;4994905;28;20478;-67
2021/12/12 12:35:10;;;;;;;0.40;0.40;;;4.70;99.90;;;;;;4995089;28;20466;-67
2021/12/12 12:38:35;;;;;;;0.40;0.40;;;4.80;99.90;;;;;;4995470;28;20426;-67
2021/12/12 12:42:26;;;;;;;0.63;0.63;;;4.80;99.90;;;;;;4996979;28;20473;-67
2021/12/12 12:45:50;;;;;;;0.57;0.57;;;4.90;99.90;;;;;;4996466;28;20532;-67
2021/12/12 12:49:51;;;;;;;0.40;0.40;;;5.00;99.90;;;;;;4996339;28;20446;-67
2021/12/12 12:53:04;;;;;;;0.40;0.40;;;4.90;99.90;;;;;;4960276;28;20446;-67
2021/12/12 12:56:08;;;;;;;0.40;0.40;;;5.10;99.90;;;;;;4995406;28;20466;-67
2021/12/12 12:59:19;;;;;;;0.40;0.40;;;5.10;99.90;;;;;;4995204;28;20421;-67
2021/12/12 13:02:13;;;;;;;0.40;0.40;;;5.20;99.90;;;;;;5006678;28;20426;-68
2021/12/12 13:05:27;;;;;;;0.40;0.40;;;5.20;99.90;;;;;;4994968;28;20439;-68
2021/12/12 13:08:46;;;;;;;0.40;0.40;;;5.10;99.90;;;;;;4994944;28;20947;-67
2021/12/12 13:11:40;;;;;;;0.40;0.40;;;5.00;99.90;;;;;;4995266;28;20803;-67
2021/12/12 13:14:45;;;;;;;0.77;0.77;;;5.10;99.90;;;;;;4994775;28;20537;-67
2021/12/12 13:17:43;;;;;;;0.40;0.40;;;5.00;99.90;;;;;;4994618;28;20431;-67
2021/12/12 13:20:41;;;;;;;0.40;0.40;;;5.00;99.90;;;;;;4995254;28;20514;-67
2021/12/12 13:23:46;;;;;;;0.40;0.40;;;5.00;99.90;;;;;;4996055;28;20419;-67
2021/12/12 13:26:46;;;;;;;0.40;0.40;;;5.00;99.90;;;;;;4996491;28;20446;-67
2021/12/12 13:29:54;;;;;;;7.47;7.00;;;4.90;99.90;;;;;;4995822;28;20799;-67
2021/12/12 13:32:50;;;;;;;0.40;0.40;;;4.90;99.90;;;;;;4995159;28;20458;-68
2021/12/12 13:35:47;;;;;;;0.40;0.40;;;5.10;99.90;;;;;;4996274;28;20890;-67
2021/12/12 13:38:49;;;;;;;0.40;0.40;;;5.10;99.90;;;;;;4996116;28;20426;-68
2021/12/12 13:41:49;;;;;;;0.53;0.53;;;5.00;99.90;;;;;;4995088;28;20433;-67
2021/12/12 13:45:03;;;;;;;0.40;0.40;;;4.90;99.90;;;;;;4995781;28;20422;-67
2021/12/12 13:48:04;;;;;;;0.40;0.40;;;4.90;99.90;;;;;;4997061;28;20509;-68
2021/12/12 13:51:00;;;;;;;0.40;0.40;;;4.80;99.90;;;;;;4996957;28;20437;-67
2021/12/12 13:53:57;;;;;;;0.40;0.40;;;4.80;99.90;;;;;;4996286;28;20467;-67
2021/12/12 13:56:56;;;;;;;0.40;0.40;;;4.80;99.90;;;;;;4997929;28;20489;-68
2021/12/12 14:00:11;;;;;;;0.40;0.40;;;4.80;99.90;;;;;;4995147;28;20839;-67
2021/12/12 14:03:01;;;;;;;0.40;0.40;;;4.80;99.90;;;;;;4996216;28;20424;-67
2021/12/12 14:05:51;;;;;;;0.40;0.40;;;4.70;99.90;;;;;;4996114;28;20694;-67
2021/12/12 14:08:43;;;;;;;0.43;0.43;;;4.70;99.90;;;;;;4996116;28;20915;-67
2021/12/12 14:11:34;;;;;;;0.40;0.40;;;4.60;99.90;;;;;;4994833;28;20486;-67
2021/12/12 14:14:24;;;;;;;0.40;0.40;;;4.80;99.90;;;;;;4995842;28;20871;-67
2021/12/12 14:17:24;;;;;;;0.70;0.70;;;4.70;99.90;;;;;;4998127;28;20529;-67
2021/12/12 14:20:15;;;;;;;0.40;0.40;;;4.60;99.90;;;;;;4993603;28;20462;-67
2021/12/12 14:23:04;;;;;;;0.40;0.40;;;4.60;99.90;;;;;;4995433;28;20477;-67
2021/12/12 14:25:57;;;;;;;0.40;0.40;;;4.50;99.90;;;;;;4996629;28;20952;-67
2021/12/12 14:28:51;;;;;;;0.40;0.40;;;4.50;99.90;;;;;;4994480;28;20434;-67
2021/12/12 14:31:43;;;;;;;0.40;0.40;;;4.50;99.90;;;;;;4993312;28;20438;-68
2021/12/12 14:34:36;;;;;;;0.40;0.40;;;4.60;99.90;;;;;;4992802;28;21046;-67
2021/12/12 14:37:28;;;;;;;0.40;0.40;;;4.50;99.90;;;;;;4993385;28;20427;-67
2021/12/12 14:40:19;;;;;;;0.40;0.40;;;4.50;99.90;;;;;;4992655;28;20427;-67
2021/12/12 14:43:11;;;;;;;0.40;0.40;;;4.50;99.90;;;;;;4992863;28;20947;-67
2021/12/12 14:46:00;;;;;;;0.40;0.40;;;4.50;99.90;;;;;;4993154;28;20447;-67
2021/12/12 14:48:51;;;;;;;0.40;0.40;;;4.50;99.90;;;;;;4993594;28;20823;-67
2021/12/12 14:51:50;;;;;;;0.40;0.40;;;4.50;99.90;;;;;;4992881;28;20481;-67
2021/12/12 14:54:41;;;;;;;0.40;0.40;;;4.50;99.90;;;;;;4991969;28;20831;-68
2021/12/12 14:57:33;;;;;;;0.40;0.40;;;4.50;99.90;;;;;;4992765;28;20434;-67
2021/12/12 15:00:23;;;;;;;0.40;0.40;;;4.50;99.90;;;;;;4993071;28;20510;-67
2021/12/12 15:03:13;;;;;;;0.40;0.40;;;4.40;99.90;;;;;;4992468;28;20971;-67
2021/12/12 15:06:05;;;;;;;0.40;0.40;;;4.50;99.90;;;;;;4992634;28;20480;-67
2021/12/12 15:08:57;;;;;;;0.40;0.40;;;4.40;99.90;;;;;;4992905;28;20852;-67
2021/12/12 15:11:52;;;;;;;0.73;0.73;;;4.40;99.90;;;;;;4997078;28;20418;-67
2021/12/12 15:14:44;;;;;;;0.50;0.50;;;4.40;99.90;;;;;;5013162;28;20466;-67
2021/12/12 15:17:33;;;;;;;0.40;0.40;;;4.40;99.90;;;;;;5013172;28;20461;-67
2021/12/12 15:20:27;;;;;;;0.40;0.40;;;4.40;99.90;;;;;;5012824;28;20496;-67
2021/12/12 15:23:20;;;;;;;0.40;0.40;;;4.40;99.90;;;;;;5014090;28;20480;-67
2021/12/12 15:26:13;;;;;;;0.40;0.40;;;4.40;99.90;;;;;;5012916;28;20445;-67